Forside
METAR-TAF:

METAR-TAF

Lufthavne :

Hiroshima, Japan

Breddekreds: 34-26N, længdekreds: 132-55E, højde: 331 m

Aktuelle vejr

Denne rapport blev lavet for 4 timer og 54 minutter siden, kl. 13:00 UTC
Vind 10 kt fra vest
Temperatur -2°C
Fugtighed 74%
Tryk 1012 hPa
Sigt 10 km eller mere
Nogle få skyer i en højde af 2000 ft

METAR: RJOA 171300Z 28010KT 9999 FEW020 M02/M06 Q1012

Tid: 02:54 (17:54 UTC)

Vejrudsigter

Denne rapport blev lavet for 47 minutter siden, kl. 17:07 UTC
Foreløbig gælder fra 17 på 18 UTC til 19 på 00 UTC
Vind 12 kt fra vest
Sigt 10 km eller mere
Nogle få skyer i en højde af 2000 ft
Brudte skyer i en højde af 4000 ft

TAF: RJOA 171707Z 1718/1900 28012KT 9999 FEW020 BKN040

Vejrobservationer og prognoser fra mere end 4000 lufthavne (METAR og TAF).

De gule og røde prikker repræsenterer de meteorologiske stationer.

Flyt musen over at se navnet på stationen.

Så klik over at se vejr observationer og prognoser.

At skifte det kort: Klik på de grønne knapper med et sort kors for at zoome ind; på den grønne knap med en bindestreg for at zoome ud; eller på de grønne pile for tilstødende kort.


METAR-TAF: